createdAt,value
2022-10-25T00:03:15.696Z,101363.63
2022-10-25T00:08:16.639Z,101384.59
2022-10-25T00:13:14.935Z,101326.78
2022-10-25T00:18:14.056Z,101339.91
2022-10-25T00:23:16.104Z,101336.97
2022-10-25T00:28:15.005Z,101342.53
2022-10-25T00:33:18.284Z,101330.53
2022-10-25T00:38:18.737Z,101345.09
2022-10-25T00:43:37.050Z,101364.59
2022-10-25T00:48:37.087Z,101358.06
2022-10-25T00:53:37.541Z,101327.25
2022-10-25T00:58:40.407Z,101316.63
2022-10-25T01:03:41.988Z,101326.78
2022-10-25T01:08:51.181Z,101290.44
2022-10-25T01:13:53.979Z,101336.78
2022-10-25T01:18:56.847Z,101345.44
2022-10-25T01:24:32.770Z,101323.81
2022-10-25T01:30:05.891Z,101318.25
2022-10-25T01:35:14.482Z,101285.88
2022-10-25T01:40:20.853Z,101306.28
2022-10-25T01:45:28.565Z,101278.97
2022-10-25T01:50:33.778Z,101270.97
2022-10-25T01:55:42.973Z,101263.94
2022-10-25T02:00:58.887Z,101250.31
2022-10-25T02:06:02.842Z,101296.13
2022-10-25T02:11:42.772Z,101307.09
2022-10-25T02:16:51.827Z,101272.41
2022-10-25T02:21:57.852Z,101280.94
2022-10-25T02:27:01.152Z,101271.63
2022-10-25T02:32:04.165Z,101262.44
2022-10-25T02:37:04.956Z,101247.38
2022-10-25T02:42:14.728Z,101291.72
2022-10-25T02:47:13.461Z,101266.19
2022-10-25T02:52:14.939Z,101252.81
2022-10-25T02:57:16.832Z,101237.44
2022-10-25T03:02:17.427Z,101243.97
2022-10-25T03:07:18.708Z,101268.66
2022-10-25T03:12:18.931Z,101283.09
2022-10-25T03:17:18.308Z,101255.41
2022-10-25T03:22:15.806Z,101237.25
2022-10-25T03:27:17.940Z,101244.44
2022-10-25T03:32:17.093Z,101232.88
2022-10-25T03:37:28.020Z,101251.97
2022-10-25T03:42:29.060Z,101247.25
2022-10-25T03:47:32.540Z,101225.66
2022-10-25T03:52:31.378Z,101242.69
2022-10-25T03:57:33.695Z,101235.59
2022-10-25T04:02:34.774Z,101251.34
2022-10-25T04:07:36.462Z,101230.22
2022-10-25T04:12:35.155Z,101222.69
2022-10-25T04:17:38.620Z,101211.56
2022-10-25T04:22:41.036Z,101229.59
2022-10-25T04:27:39.520Z,101216.81
2022-10-25T04:32:37.543Z,101269.50
2022-10-25T04:37:43.002Z,101233.81
2022-10-25T04:42:45.323Z,101240.88
2022-10-25T04:47:45.544Z,101203.84
2022-10-25T04:52:45.248Z,101239.72
2022-10-25T04:57:45.528Z,101236.28
2022-10-25T05:02:47.603Z,101260.00
2022-10-25T05:07:47.578Z,101224.34
2022-10-25T05:12:54.962Z,101250.19
2022-10-25T05:18:01.139Z,101245.78
2022-10-25T05:23:03.003Z,101293.25
2022-10-25T05:28:02.439Z,101296.69
2022-10-25T05:33:05.084Z,101258.38
2022-10-25T05:38:05.102Z,101268.03
2022-10-25T05:43:05.679Z,101267.53
2022-10-25T05:48:08.165Z,101239.19
2022-10-25T05:53:07.393Z,101255.25
2022-10-25T05:58:07.313Z,101311.22
2022-10-25T06:03:10.817Z,101269.09
2022-10-25T06:08:09.783Z,101243.75
2022-10-25T06:13:11.912Z,101296.47
2022-10-25T06:18:18.176Z,101279.75
2022-10-25T06:23:23.544Z,101290.41
2022-10-25T06:28:25.942Z,101295.00
2022-10-25T06:33:28.263Z,101286.78
2022-10-25T06:38:33.818Z,101277.06
2022-10-25T06:43:43.425Z,101295.38
2022-10-25T06:48:44.199Z,101284.91
2022-10-25T06:53:46.512Z,101299.50
2022-10-25T06:58:45.123Z,101285.22
2022-10-25T07:03:45.555Z,101276.06
2022-10-25T07:08:48.218Z,101281.31
2022-10-25T07:13:49.165Z,101287.50
2022-10-25T07:18:52.210Z,101309.06
2022-10-25T07:23:55.087Z,101316.81
2022-10-25T07:28:55.733Z,101311.75
2022-10-25T07:33:54.800Z,101294.06
2022-10-25T07:38:57.177Z,101254.69
2022-10-25T07:43:56.107Z,101246.94
2022-10-25T07:48:55.993Z,101260.09
2022-10-25T07:53:57.853Z,101232.41
2022-10-25T07:58:58.503Z,101256.25
2022-10-25T08:03:59.815Z,101284.88
2022-10-25T08:09:09.632Z,101229.75
2022-10-25T08:19:25.806Z,101250.47
2022-10-25T08:24:24.464Z,101216.19
2022-10-25T08:29:22.253Z,101236.19
2022-10-25T08:34:26.583Z,101219.69
2022-10-25T08:39:26.575Z,101215.38
2022-10-25T08:44:39.536Z,101232.31
2022-10-25T08:49:59.492Z,101197.41
2022-10-25T08:55:15.746Z,101216.03
2022-10-25T09:00:22.154Z,101212.84
2022-10-25T09:05:41.745Z,101235.63
2022-10-25T09:11:11.211Z,101190.91
2022-10-25T09:16:22.762Z,101216.09
2022-10-25T09:21:36.360Z,101205.09
2022-10-25T09:26:54.761Z,101232.25
2022-10-25T09:31:57.277Z,101207.00
2022-10-25T09:37:39.949Z,101215.94
2022-10-25T09:42:42.045Z,101198.91
2022-10-25T09:47:48.151Z,101194.53
2022-10-25T09:53:12.364Z,101202.19
2022-10-25T09:58:30.646Z,101163.38
2022-10-25T10:03:33.173Z,101195.91
2022-10-25T10:08:33.459Z,101163.16
2022-10-25T10:14:11.347Z,101157.53
2022-10-25T10:19:24.388Z,101152.75
2022-10-25T10:24:47.178Z,101161.38
2022-10-25T10:30:07.945Z,101147.16
2022-10-25T10:35:08.530Z,101149.19
2022-10-25T10:40:13.335Z,101158.38
2022-10-25T10:45:19.389Z,101151.75
2022-10-25T10:50:24.260Z,101152.63
2022-10-25T10:55:33.552Z,101114.72
2022-10-25T11:00:37.879Z,101117.28
2022-10-25T11:05:59.076Z,101120.56
2022-10-25T11:11:26.803Z,101145.38
2022-10-25T11:16:47.755Z,101141.59
2022-10-25T11:22:05.368Z,101132.63
2022-10-25T11:27:23.267Z,101102.44
2022-10-25T11:32:57.039Z,101107.19
2022-10-25T11:38:07.892Z,101079.00
2022-10-25T11:43:35.154Z,101115.19
2022-10-25T11:48:43.152Z,101095.63
2022-10-25T11:53:58.966Z,101084.59
2022-10-25T11:59:22.380Z,101102.88
2022-10-25T12:04:45.021Z,101085.19
2022-10-25T12:09:53.511Z,101077.31
2022-10-25T12:14:56.630Z,101080.56
2022-10-25T12:19:58.343Z,101080.72
2022-10-25T12:25:04.106Z,101086.63
2022-10-25T12:30:21.687Z,101061.75
2022-10-25T12:35:56.593Z,101037.00
2022-10-25T12:41:02.339Z,101054.38
2022-10-25T12:46:06.509Z,101078.72
2022-10-25T12:51:38.206Z,101072.38
2022-10-25T12:57:01.066Z,101071.88
2022-10-25T13:02:36.853Z,101026.38
2022-10-25T13:07:49.887Z,101076.78
2022-10-25T13:13:09.067Z,101047.06
2022-10-25T13:18:41.949Z,101042.03
2022-10-25T13:23:43.053Z,101048.44
2022-10-25T13:28:52.857Z,101030.09
2022-10-25T13:34:14.914Z,101019.63
2022-10-25T13:39:41.872Z,101009.72
2022-10-25T13:45:07.712Z,101048.22
2022-10-25T13:50:29.490Z,101051.34
2022-10-25T13:55:36.675Z,101029.75
2022-10-25T14:00:41.599Z,101018.34
2022-10-25T14:05:58.327Z,101041.94
2022-10-25T14:11:03.908Z,101016.59
2022-10-25T14:16:04.780Z,100998.41
2022-10-25T14:21:05.729Z,101019.28
2022-10-25T14:26:06.324Z,100997.84
2022-10-25T14:31:06.762Z,101030.69
2022-10-25T14:36:11.950Z,101030.31
2022-10-25T14:41:13.045Z,101003.25
2022-10-25T14:52:05.920Z,101010.06
2022-10-25T14:57:11.767Z,100998.41
2022-10-25T15:02:17.738Z,100990.78
2022-10-25T15:07:25.652Z,101005.78
2022-10-25T15:12:35.073Z,100995.44
2022-10-25T15:17:39.246Z,100998.34
2022-10-25T15:28:52.071Z,100981.75
2022-10-25T15:34:02.415Z,101007.50
2022-10-25T15:39:23.249Z,100992.81
2022-10-25T15:50:58.973Z,101007.50
2022-10-25T15:55:58.738Z,101006.72
2022-10-25T16:00:57.386Z,100995.41
2022-10-25T16:05:57.566Z,101011.00
2022-10-25T16:10:58.105Z,101013.31
2022-10-25T16:21:14.480Z,101016.91
2022-10-25T16:26:36.488Z,100997.53
2022-10-25T16:43:53.616Z,101034.09
2022-10-25T16:49:09.899Z,101025.19
2022-10-25T16:54:40.705Z,101063.28
2022-10-25T17:00:13.797Z,101061.63
2022-10-25T17:05:28.334Z,101052.97
2022-10-25T17:10:31.556Z,101069.81
2022-10-25T17:15:32.184Z,101090.22
2022-10-25T17:20:32.893Z,101102.34
2022-10-25T17:25:35.269Z,101086.38
2022-10-25T17:30:34.335Z,101104.88
2022-10-25T17:35:32.825Z,101095.81
2022-10-25T17:40:33.941Z,101107.22
2022-10-25T17:45:33.355Z,101074.38
2022-10-25T17:50:49.089Z,101096.00
2022-10-25T17:55:48.440Z,101099.56
2022-10-25T18:00:49.716Z,101088.22
2022-10-25T18:05:55.695Z,101077.91
2022-10-25T18:11:09.855Z,101069.06
2022-10-25T18:16:27.059Z,101116.13
2022-10-25T18:21:26.416Z,101067.31
2022-10-25T18:26:25.826Z,101109.94
2022-10-25T18:31:34.924Z,101091.44
2022-10-25T18:36:37.736Z,101122.47
2022-10-25T18:47:19.802Z,101077.53
2022-10-25T18:52:30.993Z,101110.69
2022-10-25T18:57:41.163Z,101073.41
2022-10-25T19:02:53.928Z,101094.59
2022-10-25T19:08:12.041Z,101136.03
2022-10-25T19:13:23.468Z,101126.22
2022-10-25T19:18:24.814Z,101120.19
2022-10-25T19:23:24.061Z,101109.34
2022-10-25T19:28:26.721Z,101128.03
2022-10-25T19:33:25.741Z,101095.97
2022-10-25T19:38:40.079Z,101105.72
2022-10-25T19:43:47.416Z,101154.28
2022-10-25T19:48:47.802Z,101144.47
2022-10-25T19:53:47.919Z,101189.59
2022-10-25T19:58:47.411Z,101140.75
2022-10-25T20:03:50.400Z,101188.50
2022-10-25T20:09:53.142Z,101175.94
2022-10-25T20:14:59.527Z,101161.34
2022-10-25T20:19:59.492Z,101178.00
2022-10-25T20:25:02.490Z,101194.06
2022-10-25T20:35:31.420Z,101175.22
2022-10-25T20:45:51.303Z,101187.63
2022-10-25T20:51:33.464Z,101215.09
2022-10-25T20:57:09.896Z,101169.38
2022-10-25T21:02:13.841Z,101229.72
2022-10-25T21:07:16.370Z,101209.19
2022-10-25T21:12:13.956Z,101183.41
2022-10-25T21:17:11.627Z,101205.28
2022-10-25T21:22:14.104Z,101197.53
2022-10-25T21:27:21.568Z,101218.22
2022-10-25T21:32:23.719Z,101239.81
2022-10-25T21:37:24.585Z,101217.41
2022-10-25T21:42:56.748Z,101232.22
2022-10-25T21:47:56.479Z,101269.38
2022-10-25T21:53:04.856Z,101252.09
2022-10-25T21:58:11.901Z,101216.47
2022-10-25T22:03:10.599Z,101249.22
2022-10-25T22:08:30.313Z,101255.25
2022-10-25T22:13:34.502Z,101240.13
2022-10-25T22:18:35.639Z,101281.00
2022-10-25T22:23:40.621Z,101288.88
2022-10-25T22:28:41.966Z,101235.94
2022-10-25T22:33:52.675Z,101253.06
2022-10-25T22:38:55.776Z,101253.16
2022-10-25T22:43:55.861Z,101254.50
2022-10-25T22:54:29.418Z,101257.94
2022-10-25T23:00:15.421Z,101312.53
2022-10-25T23:05:15.845Z,101281.44
2022-10-25T23:10:19.801Z,101309.19
2022-10-25T23:15:21.357Z,101306.44
2022-10-25T23:20:21.315Z,101296.63
2022-10-25T23:25:24.864Z,101314.91
2022-10-25T23:30:34.671Z,101333.66
2022-10-25T23:35:38.109Z,101328.53
2022-10-25T23:40:44.025Z,101310.34
2022-10-25T23:45:48.400Z,101332.47
2022-10-25T23:55:59.233Z,101338.00
